Night Hawk — WAS3257 — position and weather

sailwx.info

Track history (hours):
 
Tides and Currents Weather Stations Pressure Air Temp Water Temp Dewpoint Dewpoint Depression Visibility Wind Speed Wind Dir Waves Ship Positions

Night Hawk

Owner: NORTHERN TENDERING SERVICES INC, WARRENTON, OR. More information available from US FCC via Universal Licensing System and Coast Guard Vessel Documentation Center.

Last reported at 2018-Mar-13 18:32 UTC. Time now 2018-Jun-24 22:38 UTC.
Position N 54°24' W 130°38'.
Warning: this ship's position is months out of date.

; draft 2 m.

Type: Fishing. MMSI: 367088940.

Date/timePositionNaut miles runAvg speedWind from/ knotsBaromVisibWave heightAir tempDewpointWater temp
2018-Mar-13 18:32N 54°24' W 130°38'0 7.3
2018-Mar-13 18:30N 54°24' W 130°38'4 7.6
2018-Mar-13 18:00N 54°21' W 130°35'4 7.9
2018-Mar-13 17:30N 54°17' W 130°32'4 8.2
2018-Mar-13 17:00N 54°14' W 130°29'4 8.2
2018-Mar-13 16:30N 54°10' W 130°26'4 8.4
2018-Mar-13 16:00N 54°07' W 130°21'4 8.9
2018-Mar-13 15:30N 54°04' W 130°16'4 8.9
2018-Mar-13 15:00N 53°60' W 130°12'4 8.7
2018-Mar-13 14:30N 53°55' W 130°11'4 8.7
2018-Mar-13 14:00N 53°53' W 130°05'5 8.9
2018-Mar-13 13:30N 53°49' W 129°60'5 8.9
2018-Mar-13 12:56N 53°46' W 129°54'92 7.3
2018-Mar-13 00:20N 52°30' W 128°28'2 7.6
2018-Mar-13 00:01N 52°27' W 128°28'4 7.7
2018-Mar-12 23:29N 52°23' W 128°29'4 8.0
2018-Mar-12 22:59N 52°19' W 128°29'5 8.5
2018-Mar-12 22:24N 52°16' W 128°23'4 9.1
2018-Mar-12 21:55N 52°14' W 128°16'5 8.6
2018-Mar-12 21:19N 52°13' W 128°08'2 6.5
2018-Mar-12 20:59N 52°10' W 128°08'4 7.8
2018-Mar-12 20:31N 52°07' W 128°08'4 7.5
2018-Mar-12 20:00N 52°05' W 128°02'4 8.0
2018-Mar-12 19:30N 52°03' W 127°56'4 7.5
2018-Mar-12 19:00N 51°60' W 127°55'4 7.8
2018-Mar-12 18:31N 51°56' W 127°55'4 7.7
2018-Mar-12 18:01N 51°52' W 127°55'4 8.4
2018-Mar-12 17:30N 51°48' W 127°54'4 8.5
2018-Mar-12 17:00N 51°43' W 127°54'4 8.5
2018-Mar-12 16:30N 51°39' W 127°53'4 7.1
2018-Mar-12 16:00N 51°36' W 127°53'4 8.2
2018-Mar-12 15:30N 51°32' W 127°52'4 8.2
2018-Mar-12 15:00N 51°27' W 127°52'4 8.3
2018-Mar-12 14:30N 51°23' W 127°51'4 8.0
2018-Mar-12 13:59N 51°19' W 127°51'4 8.4
2018-Mar-12 13:30N 51°15' W 127°51'4 8.5
2018-Mar-12 13:00N 51°11' W 127°49'4 8.5
2018-Mar-12 12:30N 51°08' W 127°45'5 8.9
2018-Mar-12 12:00N 51°04' W 127°40'4 8.7
2018-Mar-12 11:30N 51°01' W 127°36'4 8.7
2018-Mar-12 11:00N 50°58' W 127°30'5 9.0
2018-Mar-12 10:30N 50°55' W 127°25'4 8.9
2018-Mar-12 10:00N 50°52' W 127°20'5 8.9
2018-Mar-12 09:29N 50°49' W 127°14'4 8.6
2018-Mar-12 09:00N 50°47' W 127°09'5 8.7
2018-Mar-12 08:25N 50°44' W 127°02'6 8.5
2018-Mar-12 07:45N 50°41' W 126°55'7 8.4
2018-Mar-12 06:57N 50°37' W 126°46'10 7.5
2018-Mar-12 05:34N 50°31' W 126°33'1 8.8
2018-Mar-12 05:26N 50°31' W 126°31'42 9.1
2018-Mar-12 00:45N 50°20' W 125°27'3 9.3
2018-Mar-12 00:29N 50°18' W 125°25'4 9.4
2018-Mar-12 00:01N 50°14' W 125°23'5 9.7
2018-Mar-11 23:31N 50°09' W 125°22'510.1
2018-Mar-11 23:00N 50°05' W 125°16'510.4
2018-Mar-11 22:30N 50°00' W 125°13'5 9.2
2018-Mar-11 22:00N 49°57' W 125°08'4 8.6
2018-Mar-11 21:30N 49°53' W 125°04'4 8.9
2018-Mar-11 21:01N 49°50' W 124°59'4 8.7
2018-Mar-11 20:30N 49°47' W 124°55'4 8.3
2018-Mar-11 20:00N 49°44' W 124°51'4 8.2
2018-Mar-11 19:30N 49°41' W 124°46'4 8.2
2018-Mar-11 19:00N 49°38' W 124°42'4 8.0
2018-Mar-11 18:30N 49°35' W 124°37'5 8.1
2018-Mar-11 17:56N 49°32' W 124°32'9 8.1
2018-Mar-11 16:48N 49°26' W 124°21'28 8.0
2018-Mar-11 13:19N 49°12' W 123°44'2 7.7
2018-Mar-11 13:00N 49°10' W 123°41'3 5.4
2018-Mar-11 12:27N 49°07' W 123°41'5 5.1
2018-Mar-11 11:29N 49°03' W 123°39'4 7.7
2018-Mar-11 10:57N 48°59' W 123°35'4 7.8
2018-Mar-11 10:28N 48°57' W 123°32'4 7.8
2018-Mar-11 10:01N 48°54' W 123°28'4 8.3
2018-Mar-11 09:30N 48°51' W 123°23'4 7.8
2018-Mar-11 09:01N 48°48' W 123°20'4 7.3
2018-Mar-11 08:31N 48°45' W 123°17'4 7.4
2018-Mar-11 08:01N 48°41' W 123°15'4 8.1
2018-Mar-11 07:30N 48°38' W 123°13'4 8.2
2018-Mar-11 07:00N 48°34' W 123°12'5 9.0
2018-Mar-11 06:30N 48°29' W 123°09'5 9.4
2018-Mar-11 06:00N 48°25' W 123°10'5 9.8
2018-Mar-11 05:30N 48°22' W 123°17'25 8.2
2018-Mar-11 02:30N 48°21' W 123°54'4 7.8
2018-Mar-11 02:00N 48°21' W 123°59'4 7.5
2018-Mar-11 01:31N 48°22' W 124°05'4 7.2
2018-Mar-11 01:01N 48°22' W 124°10'3 6.9
2018-Mar-11 00:30N 48°22' W 124°16'3 6.1
2018-Mar-11 00:00N 48°23' W 124°20'3 6.6
2018-Mar-10 23:30N 48°22' W 124°25'3 5.8
2018-Mar-10 23:01N 48°23' W 124°29'3 6.1
2018-Mar-10 22:31N 48°23' W 124°34'3 6.3
2018-Mar-10 22:01N 48°24' W 124°39'4 6.9
2018-Mar-10 21:30N 48°24' W 124°44'3 6.6
2018-Mar-10 20:59N 48°21' W 124°46'4 7.6
2018-Mar-10 20:29N 48°17' W 124°47'4 7.9
2018-Mar-10 20:00N 48°13' W 124°48'66 8.0
2018-Mar-10 11:45N 47°10' W 124°19'2 8.1
2018-Mar-10 11:29N 47°08' W 124°18'4 8.0
2018-Mar-10 11:00N 47°04' W 124°17'4 7.8
2018-Mar-10 10:31N 47°00' W 124°16'4 7.6
2018-Mar-10 10:01N 46°57' W 124°15'4 7.7
2018-Mar-10 09:31N 46°53' W 124°14'4 7.6
2018-Mar-10 09:00N 46°49' W 124°13'611.4
2018-Mar-10 08:29N 46°43' W 124°12'1 2.6
2018-Mar-10 08:01N 46°42' W 124°12'4 7.4
2018-Mar-10 07:30N 46°38' W 124°11'4 7.2
2018-Mar-10 07:01N 46°35' W 124°10'4 7.3
2018-Mar-10 06:27N 46°31' W 124°10'511.6
2018-Mar-10 06:00N 46°26' W 124°09'4 5.2
2018-Mar-10 05:13N 46°22' W 124°08'2 7.7
2018-Mar-10 05:01N 46°20' W 124°08'4 7.4
2018-Mar-10 04:31N 46°16' W 124°07'3 5.7
2018-Mar-10 04:01N 46°15' W 124°03'4 8.2
2018-Mar-10 03:31N 46°13' W 123°58'4 6.3
2018-Mar-10 02:54N 46°10' W 123°55'0 0.0
2018-Mar-10 02:31N 46°10' W 123°55'0 0.0
2018-Mar-10 02:01N 46°10' W 123°55'0 0.0
2018-Mar-10 01:31N 46°10' W 123°55'0 0.0
2018-Mar-10 01:01N 46°10' W 123°55'0 0.0
2018-Mar-10 00:31N 46°10' W 123°55'0 0.0
2018-Mar-10 00:01N 46°10' W 123°55'0 0.0
2018-Mar-09 23:31N 46°10' W 123°55'0 0.0
2018-Mar-09 23:01N 46°10' W 123°55'0 0.0
2018-Mar-09 22:31N 46°10' W 123°55'0 0.0
2018-Mar-09 22:01N 46°10' W 123°55'0 0.0
2018-Mar-09 21:30N 46°10' W 123°55'0 0.0
2018-Mar-09 21:00N 46°10' W 123°55'0 0.0
2018-Mar-09 20:31N 46°10' W 123°55'0 0.0
2018-Mar-09 20:01N 46°10' W 123°55'0 0.0
2018-Mar-09 19:30N 46°10' W 123°55'0 0.0
2018-Mar-09 19:00N 46°10' W 123°55'0 0.0
2018-Mar-09 18:30N 46°10' W 123°55'0 0.0
2018-Mar-09 18:00N 46°10' W 123°55'2 3.3
2018-Mar-09 17:30N 46°11' W 123°53'2 4.3
2018-Mar-09 17:01N 46°12' W 123°50'0 0.0
2018-Mar-09 16:30N 46°12' W 123°50'0 0.0
2018-Mar-09 16:01N 46°12' W 123°50'0 0.0
2018-Mar-09 15:31N 46°12' W 123°50'0 0.0
2018-Mar-09 15:01N 46°12' W 123°50'0 0.0
2018-Mar-09 14:31N 46°12' W 123°50'1 1.3
2018-Mar-09 13:56N 46°12' W 123°51'3 6.8
2018-Mar-09 13:31N 46°10' W 123°55'0 0.0
2018-Mar-09 13:00N 46°10' W 123°55'0 0.0
2018-Mar-09 12:31N 46°10' W 123°55'0 0.0
2018-Mar-09 12:01N 46°10' W 123°55'0 0.0
2018-Mar-09 11:31N 46°10' W 123°55'0 0.0
2018-Mar-09 11:00N 46°10' W 123°55'0 0.0
2018-Mar-09 10:30N 46°10' W 123°55'0 0.0
2018-Mar-09 10:00N 46°10' W 123°55'0 0.0
2018-Mar-09 09:31N 46°10' W 123°55'0 0.0
2018-Mar-09 09:00N 46°10' W 123°55'0 0.0
2018-Mar-09 08:31N 46°10' W 123°55'0 0.0
2018-Mar-09 08:01N 46°10' W 123°55'0 0.0
2018-Mar-09 07:30N 46°10' W 123°55'0 0.0
2018-Mar-09 07:00N 46°10' W 123°55'0 0.0
2018-Mar-09 06:31N 46°10' W 123°55'0 0.0
2018-Mar-09 06:00N 46°10' W 123°55'0 0.0
2018-Mar-09 05:27N 46°10' W 123°55'0 0.0
2018-Mar-09 04:57N 46°10' W 123°55'0 0.0
2018-Mar-09 04:30N 46°10' W 123°55'0 0.0
2018-Mar-09 03:57N 46°10' W 123°55'0 0.0
2018-Mar-09 03:31N 46°10' W 123°55'0 0.0
2018-Mar-09 02:57N 46°10' W 123°55'0 0.0
2018-Mar-09 02:31N 46°10' W 123°55'0 0.0
2018-Mar-09 02:01N 46°10' W 123°55'0 0.0
2018-Mar-09 01:31N 46°10' W 123°55'0 0.0
2018-Mar-09 01:01N 46°10' W 123°55'0 0.0
2018-Mar-09 00:31N 46°10' W 123°55'0 0.0
2018-Mar-09 00:01N 46°10' W 123°55'0 0.0
2018-Mar-08 23:30N 46°10' W 123°55'0 0.0
2018-Mar-08 23:01N 46°10' W 123°55'0 0.0
2018-Mar-08 22:31N 46°10' W 123°55'0 0.0
2018-Mar-08 21:43N 46°10' W 123°55'0 0.0
2018-Mar-08 21:30N 46°10' W 123°55'0 0.0
2018-Mar-08 21:00N 46°10' W 123°55'0 0.0
2018-Mar-08 20:31N 46°10' W 123°55'3 0.1
2018-Mar-07 22:00N 46°09' W 123°52'0 0.0
2018-Mar-07 21:31N 46°09' W 123°52'0 0.0
2018-Mar-07 21:01N 46°09' W 123°52'0 0.0
2018-Mar-07 20:30N 46°09' W 123°52'0 0.0
2018-Mar-07 20:01N 46°09' W 123°52'0 0.0
2018-Mar-07 19:30N 46°09' W 123°52'0 0.0
2018-Mar-07 18:39N 46°09' W 123°52'0 0.0
2018-Mar-07 18:30N 46°09' W 123°52'0 0.0
2018-Mar-07 18:00N 46°09' W 123°52'0 0.0
2018-Mar-07 17:31N 46°09' W 123°52'0 0.0
2018-Mar-07 17:00N 46°09' W 123°52'0 0.0
2018-Mar-07 16:31N 46°09' W 123°52'0 0.0
2018-Mar-07 16:00N 46°09' W 123°52'0 0.0
2018-Mar-07 15:31N 46°09' W 123°52'0 0.0
2018-Mar-07 15:01N 46°09' W 123°52'0 0.0
2018-Mar-07 14:16N 46°09' W 123°52'0 0.0
2018-Mar-07 14:01N 46°09' W 123°52'0 0.0
2018-Mar-07 13:31N 46°09' W 123°52'0 0.0
2018-Mar-07 13:00N 46°09' W 123°52'0 0.0
2018-Mar-07 12:31N 46°09' W 123°52'0 0.0
2018-Mar-07 11:57N 46°09' W 123°52'0 0.0
2018-Mar-07 11:30N 46°09' W 123°52'0 0.0
2018-Mar-07 11:01N 46°09' W 123°52'0 0.0
2018-Mar-07 10:30N 46°09' W 123°52'0 0.0
2018-Mar-07 10:01N 46°09' W 123°52'0 0.0
2018-Mar-07 09:24N 46°09' W 123°52'0 0.0
2018-Mar-07 09:01N 46°09' W 123°52'0 0.0
2018-Mar-07 08:31N 46°09' W 123°52'0 0.0
2018-Mar-07 08:01N 46°09' W 123°52'0 0.0
2018-Mar-07 07:14N 46°09' W 123°52'0 0.0
2018-Mar-07 07:01N 46°09' W 123°52'0 0.0
2018-Mar-07 06:19N 46°09' W 123°52'0 0.0
2018-Mar-07 06:00N 46°09' W 123°52'0 0.0
2018-Mar-07 05:30N 46°09' W 123°52'0 0.0
2018-Mar-07 05:01N 46°09' W 123°52'0 0.0
2018-Mar-07 04:30N 46°09' W 123°52'0 0.0
2018-Mar-07 04:01N 46°09' W 123°52'0 0.0
2018-Mar-07 03:31N 46°09' W 123°52'0 0.0
2018-Mar-07 03:00N 46°09' W 123°52'0 0.0
2018-Mar-07 02:30N 46°09' W 123°52'0 0.0
2018-Mar-07 01:53N 46°09' W 123°52'0 0.0
2018-Mar-07 01:29N 46°09' W 123°52'0 0.0
2018-Mar-07 01:01N 46°09' W 123°52'0 0.0
2018-Mar-07 00:27N 46°09' W 123°52'0 0.0
2018-Mar-06 23:54N 46°09' W 123°52'0 0.0
2018-Mar-06 23:20N 46°09' W 123°52'0 0.0
2018-Mar-06 23:01N 46°09' W 123°52'0 0.0
2018-Mar-06 22:22N 46°09' W 123°52'0 0.0
2018-Mar-06 22:01N 46°09' W 123°52'0 0.0
2018-Mar-06 21:31N 46°09' W 123°52'0 0.0
2018-Mar-06 20:47N 46°09' W 123°52'0 0.0
2018-Mar-06 20:29N 46°09' W 123°52'0 0.0
2018-Mar-06 20:01N 46°09' W 123°52'0 0.0
2018-Mar-06 19:30N 46°09' W 123°52'0 0.0
2018-Mar-06 19:01N 46°09' W 123°52'0 0.0
2018-Mar-06 18:30N 46°09' W 123°52'0 0.0
2018-Mar-06 18:01N 46°09' W 123°52'0 0.0
2018-Mar-06 17:30N 46°09' W 123°52'0 0.0
2018-Mar-06 17:00N 46°09' W 123°52'0 0.0
2018-Mar-06 16:30N 46°09' W 123°52'0 0.0
2018-Mar-06 16:01N 46°09' W 123°52'0 0.0
2018-Mar-06 15:25N 46°09' W 123°52'0 0.0
2018-Mar-06 15:00N 46°09' W 123°52'0 0.0
2018-Mar-06 14:30N 46°09' W 123°52'0 0.0
2018-Mar-06 14:01N 46°09' W 123°52'0 0.0
2018-Mar-06 13:31N 46°09' W 123°52'0 0.0
2018-Mar-06 13:01N 46°09' W 123°52'0 0.0
2018-Mar-06 12:30N 46°09' W 123°52'0 0.0
2018-Mar-06 12:01N 46°09' W 123°52'0 0.0
2018-Mar-06 11:28N 46°09' W 123°52'0 0.0
2018-Mar-06 11:00N 46°09' W 123°52'0 0.0
2018-Mar-06 10:31N 46°09' W 123°52'0 0.0
2018-Mar-06 10:00N 46°09' W 123°52'0 0.0
2018-Mar-06 09:30N 46°09' W 123°52'0 0.0
2018-Mar-06 09:00N 46°09' W 123°52'0 0.0
2018-Mar-06 08:29N 46°09' W 123°52'0 0.0
2018-Mar-06 08:00N 46°09' W 123°52'0 0.0
2018-Mar-06 07:30N 46°09' W 123°52'0 0.0
2018-Mar-06 07:01N 46°09' W 123°52'0 0.0
2018-Mar-06 06:30N 46°09' W 123°52'0 0.0
2018-Mar-06 06:00N 46°09' W 123°52'0 0.0
2018-Mar-06 05:31N 46°09' W 123°52'0 0.0
2018-Mar-06 05:00N 46°09' W 123°52'0 0.0
2018-Mar-06 04:31N 46°09' W 123°52'0 0.0
2018-Mar-06 04:01N 46°09' W 123°52'0 0.0
2018-Mar-06 03:30N 46°09' W 123°52'0 0.0
2018-Mar-06 03:01N 46°09' W 123°52'0 0.0
2018-Mar-06 02:31N 46°09' W 123°52'0 0.0
2018-Mar-06 02:01N 46°09' W 123°52'0 0.0
2018-Mar-06 01:31N 46°09' W 123°52'0 0.0
2018-Mar-06 01:00N 46°09' W 123°52'0 0.0
2018-Mar-06 00:31N 46°09' W 123°52'0 0.0
2018-Mar-06 00:01N 46°09' W 123°52'0 0.0
2018-Mar-05 23:31N 46°09' W 123°52'0 0.0
2018-Mar-05 23:00N 46°09' W 123°52'0 0.0
2018-Mar-05 22:30N 46°09' W 123°52'0 0.0
2018-Mar-05 22:01N 46°09' W 123°52'0 0.0
2018-Mar-05 21:31N 46°09' W 123°52'0 0.0
2018-Mar-05 21:01N 46°09' W 123°52'0 0.0
2018-Mar-05 20:30N 46°09' W 123°52'0 0.0
2018-Mar-05 20:00N 46°09' W 123°52'0 0.0
2018-Mar-05 19:30N 46°09' W 123°52'0 0.0
2018-Mar-05 19:00N 46°09' W 123°52'0 0.0
2018-Mar-05 18:31N 46°09' W 123°52'0 0.0
2018-Mar-05 17:59N 46°09' W 123°52'0 0.0
2018-Mar-05 17:31N 46°09' W 123°52'0 0.0
2018-Mar-05 17:01N 46°09' W 123°52'0 0.0
2018-Mar-05 16:30N 46°09' W 123°52'0 0.0
2018-Mar-05 16:01N 46°09' W 123°52'0 0.0
2018-Mar-05 15:30N 46°09' W 123°52'0 0.0
2018-Mar-05 15:00N 46°09' W 123°52'0 0.0
2018-Mar-05 14:26N 46°09' W 123°52'0 0.0
2018-Mar-05 14:00N 46°09' W 123°52'0 0.0
2018-Mar-05 13:29N 46°09' W 123°52'0 0.0
2018-Mar-05 13:01N 46°09' W 123°52'0 0.0
2018-Mar-05 12:31N 46°09' W 123°52'0 0.0
2018-Mar-05 12:01N 46°09' W 123°52'0 0.0
2018-Mar-05 11:31N 46°09' W 123°52'0 0.0
2018-Mar-05 11:00N 46°09' W 123°52'0 0.0
2018-Mar-05 10:31N 46°09' W 123°52'0 0.0
2018-Mar-05 10:01N 46°09' W 123°52'0 0.0
2018-Mar-05 09:30N 46°09' W 123°52'0 0.0
2018-Mar-05 08:48N 46°09' W 123°52'0 0.0
2018-Mar-05 08:30N 46°09' W 123°52'0 0.0
2018-Mar-05 08:01N 46°09' W 123°52'0 0.0
2018-Mar-05 07:30N 46°09' W 123°52'0 0.0
2018-Mar-05 07:00N 46°09' W 123°52'0 0.0
2018-Mar-05 06:31N 46°09' W 123°52'0 0.0
2018-Mar-05 06:01N 46°09' W 123°52'0 0.0
2018-Mar-05 05:30N 46°09' W 123°52'0 0.0
2018-Mar-05 05:00N 46°09' W 123°52'0 0.0
2018-Mar-05 04:11N 46°09' W 123°52'0 0.0
2018-Mar-05 04:00N 46°09' W 123°52'0 0.0
2018-Mar-05 03:31N 46°09' W 123°52'0 0.0
2018-Mar-05 03:01N 46°09' W 123°52'0 0.0
2018-Mar-05 02:31N 46°09' W 123°52'0 0.0
2018-Mar-05 01:53N 46°09' W 123°52'0 0.0
2018-Mar-05 01:31N 46°09' W 123°52'0 0.0
2018-Mar-05 01:01N 46°09' W 123°52'0 0.0
2018-Mar-05 00:30N 46°09' W 123°52'0 0.0
2018-Mar-05 00:01N 46°09' W 123°52'0 0.0
2018-Mar-04 23:31N 46°09' W 123°52'0 0.0
2018-Mar-04 22:57N 46°09' W 123°52'0 0.0
2018-Mar-04 22:30N 46°09' W 123°52'0 0.0
2018-Mar-04 22:00N 46°09' W 123°52'0 0.0
2018-Mar-04 21:31N 46°09' W 123°52'0 0.0
2018-Mar-04 21:01N 46°09' W 123°52'0 0.0
2018-Mar-04 20:30N 46°09' W 123°52'0 0.0
2018-Mar-04 20:00N 46°09' W 123°52'0 0.0
2018-Mar-04 19:27N 46°09' W 123°52'0 0.0
2018-Mar-04 19:01N 46°09' W 123°52'0 0.0
2018-Mar-04 18:31N 46°09' W 123°52'0 0.0
2018-Mar-04 18:00N 46°09' W 123°52'0 0.0
2018-Mar-04 17:30N 46°09' W 123°52'0 0.0
2018-Mar-04 17:01N 46°09' W 123°52'0 0.0
2018-Mar-04 16:31N 46°09' W 123°52'0 0.0
2018-Mar-04 16:01N 46°09' W 123°52'0 0.0
2018-Mar-04 15:31N 46°09' W 123°52'0 0.0
2018-Mar-04 15:00N 46°09' W 123°52'0 0.0
2018-Mar-04 13:53N 46°09' W 123°52'0 0.0
2018-Mar-04 13:31N 46°09' W 123°52'0 0.0
2018-Mar-04 13:01N 46°09' W 123°52'0 0.0
2018-Mar-04 12:31N 46°09' W 123°52'0 0.0
2018-Mar-04 12:01N 46°09' W 123°52'0 0.0
2018-Mar-04 11:31N 46°09' W 123°52'0 0.0
2018-Mar-04 11:00N 46°09' W 123°52'0 0.0
2018-Mar-04 10:31N 46°09' W 123°52'0 0.0
2018-Mar-04 10:01N 46°09' W 123°52'0 0.0
2018-Mar-04 09:31N 46°09' W 123°52'0 0.0
2018-Mar-04 09:01N 46°09' W 123°52'0 0.0
2018-Mar-04 08:31N 46°09' W 123°52'0 0.0
2018-Mar-04 08:00N 46°09' W 123°52'0 0.0
2018-Mar-04 07:30N 46°09' W 123°52'0 0.0
2018-Mar-04 06:44N 46°09' W 123°52'0 0.0
2018-Mar-04 06:30N 46°09' W 123°52'0 0.0
2018-Mar-04 05:55N 46°09' W 123°52'0 0.0
2018-Mar-04 05:30N 46°09' W 123°52'0 0.0
2018-Mar-04 05:01N 46°09' W 123°52'0 0.0
2018-Mar-04 04:30N 46°09' W 123°52'0 0.0
2018-Mar-04 03:55N 46°09' W 123°52'0 0.0
2018-Mar-04 03:30N 46°09' W 123°52'0 0.0
2018-Mar-04 03:01N 46°09' W 123°52'0 0.0
2018-Mar-04 02:30N 46°09' W 123°52'0 0.0
2018-Mar-04 02:00N 46°09' W 123°52'0 0.0
2018-Mar-04 01:30N 46°09' W 123°52'0 0.0
2018-Mar-04 00:46N 46°09' W 123°52'0 0.0
2018-Mar-04 00:31N 46°09' W 123°52'0 0.0
2018-Mar-04 00:00N 46°09' W 123°52'0 0.0
2018-Mar-03 23:31N 46°09' W 123°52'0 0.0
2018-Mar-03 23:00N 46°09' W 123°52'0 0.0
2018-Mar-03 22:31N 46°09' W 123°52'0 0.0
2018-Mar-03 22:00N 46°09' W 123°52'0 0.0
2018-Mar-03 21:31N 46°09' W 123°52'0 0.0
2018-Mar-03 21:01N 46°09' W 123°52'0 0.0
2018-Mar-03 20:30N 46°09' W 123°52'0 0.0
2018-Mar-03 20:01N 46°09' W 123°52'0 0.0
2018-Mar-03 19:31N 46°09' W 123°52'0 0.0
2018-Mar-03 19:01N 46°09' W 123°52'  
Track history (hours):
 
Tides and Currents Weather Stations Pressure Air Temp Water Temp Dewpoint Dewpoint Depression Visibility Wind Speed Wind Dir Waves Ship Positions

Night Hawk

Owner: NORTHERN TENDERING SERVICES INC, WARRENTON, OR. More information available from US FCC via Universal Licensing System and Coast Guard Vessel Documentation Center.

Last reported at 2018-Mar-13 18:32 UTC. Time now 2018-Jun-24 22:38 UTC.
Position N 54°24' W 130°38'.
Warning: this ship's position is months out of date.

; draft 2 m.

Type: Fishing. MMSI: 367088940.

Date/timePositionNaut miles runAvg speedWind from/ knotsBaromVisibWave heightAir tempDewpointWater temp
2018-Mar-13 18:32N 54°24' W 130°38'0 7.3
2018-Mar-13 18:30N 54°24' W 130°38'4 7.6
2018-Mar-13 18:00N 54°21' W 130°35'4 7.9
2018-Mar-13 17:30N 54°17' W 130°32'4 8.2
2018-Mar-13 17:00N 54°14' W 130°29'4 8.2
2018-Mar-13 16:30N 54°10' W 130°26'4 8.4
2018-Mar-13 16:00N 54°07' W 130°21'4 8.9
2018-Mar-13 15:30N 54°04' W 130°16'4 8.9
2018-Mar-13 15:00N 53°60' W 130°12'4 8.7
2018-Mar-13 14:30N 53°55' W 130°11'4 8.7
2018-Mar-13 14:00N 53°53' W 130°05'5 8.9
2018-Mar-13 13:30N 53°49' W 129°60'5 8.9
2018-Mar-13 12:56N 53°46' W 129°54'92 7.3
2018-Mar-13 00:20N 52°30' W 128°28'2 7.6
2018-Mar-13 00:01N 52°27' W 128°28'4 7.7
2018-Mar-12 23:29N 52°23' W 128°29'4 8.0
2018-Mar-12 22:59N 52°19' W 128°29'5 8.5
2018-Mar-12 22:24N 52°16' W 128°23'4 9.1
2018-Mar-12 21:55N 52°14' W 128°16'5 8.6
2018-Mar-12 21:19N 52°13' W 128°08'2 6.5
2018-Mar-12 20:59N 52°10' W 128°08'4 7.8
2018-Mar-12 20:31N 52°07' W 128°08'4 7.5
2018-Mar-12 20:00N 52°05' W 128°02'4 8.0
2018-Mar-12 19:30N 52°03' W 127°56'4 7.5
2018-Mar-12 19:00N 51°60' W 127°55'4 7.8
2018-Mar-12 18:31N 51°56' W 127°55'4 7.7
2018-Mar-12 18:01N 51°52' W 127°55'4 8.4
2018-Mar-12 17:30N 51°48' W 127°54'4 8.5
2018-Mar-12 17:00N 51°43' W 127°54'4 8.5
2018-Mar-12 16:30N 51°39' W 127°53'4 7.1
2018-Mar-12 16:00N 51°36' W 127°53'4 8.2
2018-Mar-12 15:30N 51°32' W 127°52'4 8.2
2018-Mar-12 15:00N 51°27' W 127°52'4 8.3
2018-Mar-12 14:30N 51°23' W 127°51'4 8.0
2018-Mar-12 13:59N 51°19' W 127°51'4 8.4
2018-Mar-12 13:30N 51°15' W 127°51'4 8.5
2018-Mar-12 13:00N 51°11' W 127°49'4 8.5
2018-Mar-12 12:30N 51°08' W 127°45'5 8.9
2018-Mar-12 12:00N 51°04' W 127°40'4 8.7
2018-Mar-12 11:30N 51°01' W 127°36'4 8.7
2018-Mar-12 11:00N 50°58' W 127°30'5 9.0
2018-Mar-12 10:30N 50°55' W 127°25'4 8.9
2018-Mar-12 10:00N 50°52' W 127°20'5 8.9
2018-Mar-12 09:29N 50°49' W 127°14'4 8.6
2018-Mar-12 09:00N 50°47' W 127°09'5 8.7
2018-Mar-12 08:25N 50°44' W 127°02'6 8.5
2018-Mar-12 07:45N 50°41' W 126°55'7 8.4
2018-Mar-12 06:57N 50°37' W 126°46'10 7.5
2018-Mar-12 05:34N 50°31' W 126°33'1 8.8
2018-Mar-12 05:26N 50°31' W 126°31'42 9.1
2018-Mar-12 00:45N 50°20' W 125°27'3 9.3
2018-Mar-12 00:29N 50°18' W 125°25'4 9.4
2018-Mar-12 00:01N 50°14' W 125°23'5 9.7
2018-Mar-11 23:31N 50°09' W 125°22'510.1
2018-Mar-11 23:00N 50°05' W 125°16'510.4
2018-Mar-11 22:30N 50°00' W 125°13'5 9.2
2018-Mar-11 22:00N 49°57' W 125°08'4 8.6
2018-Mar-11 21:30N 49°53' W 125°04'4 8.9
2018-Mar-11 21:01N 49°50' W 124°59'4 8.7
2018-Mar-11 20:30N 49°47' W 124°55'4 8.3
2018-Mar-11 20:00N 49°44' W 124°51'4 8.2
2018-Mar-11 19:30N 49°41' W 124°46'4 8.2
2018-Mar-11 19:00N 49°38' W 124°42'4 8.0
2018-Mar-11 18:30N 49°35' W 124°37'5 8.1
2018-Mar-11 17:56N 49°32' W 124°32'9 8.1
2018-Mar-11 16:48N 49°26' W 124°21'28 8.0
2018-Mar-11 13:19N 49°12' W 123°44'2 7.7
2018-Mar-11 13:00N 49°10' W 123°41'3 5.4
2018-Mar-11 12:27N 49°07' W 123°41'5 5.1
2018-Mar-11 11:29N 49°03' W 123°39'4 7.7
2018-Mar-11 10:57N 48°59' W 123°35'4 7.8
2018-Mar-11 10:28N 48°57' W 123°32'4 7.8
2018-Mar-11 10:01N 48°54' W 123°28'4 8.3
2018-Mar-11 09:30N 48°51' W 123°23'4 7.8
2018-Mar-11 09:01N 48°48' W 123°20'4 7.3
2018-Mar-11 08:31N 48°45' W 123°17'4 7.4
2018-Mar-11 08:01N 48°41' W 123°15'4 8.1
2018-Mar-11 07:30N 48°38' W 123°13'4 8.2
2018-Mar-11 07:00N 48°34' W 123°12'5 9.0
2018-Mar-11 06:30N 48°29' W 123°09'5 9.4
2018-Mar-11 06:00N 48°25' W 123°10'5 9.8
2018-Mar-11 05:30N 48°22' W 123°17'25 8.2
2018-Mar-11 02:30N 48°21' W 123°54'4 7.8
2018-Mar-11 02:00N 48°21' W 123°59'4 7.5
2018-Mar-11 01:31N 48°22' W 124°05'4 7.2
2018-Mar-11 01:01N 48°22' W 124°10'3 6.9
2018-Mar-11 00:30N 48°22' W 124°16'3 6.1
2018-Mar-11 00:00N 48°23' W 124°20'3 6.6
2018-Mar-10 23:30N 48°22' W 124°25'3 5.8
2018-Mar-10 23:01N 48°23' W 124°29'3 6.1
2018-Mar-10 22:31N 48°23' W 124°34'3 6.3
2018-Mar-10 22:01N 48°24' W 124°39'4 6.9
2018-Mar-10 21:30N 48°24' W 124°44'3 6.6
2018-Mar-10 20:59N 48°21' W 124°46'4 7.6
2018-Mar-10 20:29N 48°17' W 124°47'4 7.9
2018-Mar-10 20:00N 48°13' W 124°48'66 8.0
2018-Mar-10 11:45N 47°10' W 124°19'2 8.1
2018-Mar-10 11:29N 47°08' W 124°18'4 8.0
2018-Mar-10 11:00N 47°04' W 124°17'4 7.8
2018-Mar-10 10:31N 47°00' W 124°16'4 7.6
2018-Mar-10 10:01N 46°57' W 124°15'4 7.7
2018-Mar-10 09:31N 46°53' W 124°14'4 7.6
2018-Mar-10 09:00N 46°49' W 124°13'611.4
2018-Mar-10 08:29N 46°43' W 124°12'1 2.6
2018-Mar-10 08:01N 46°42' W 124°12'4 7.4
2018-Mar-10 07:30N 46°38' W 124°11'4 7.2
2018-Mar-10 07:01N 46°35' W 124°10'4 7.3
2018-Mar-10 06:27N 46°31' W 124°10'511.6
2018-Mar-10 06:00N 46°26' W 124°09'4 5.2
2018-Mar-10 05:13N 46°22' W 124°08'2 7.7
2018-Mar-10 05:01N 46°20' W 124°08'4 7.4
2018-Mar-10 04:31N 46°16' W 124°07'3 5.7
2018-Mar-10 04:01N 46°15' W 124°03'4 8.2
2018-Mar-10 03:31N 46°13' W 123°58'4 6.3
2018-Mar-10 02:54N 46°10' W 123°55'0 0.0
2018-Mar-10 02:31N 46°10' W 123°55'0 0.0
2018-Mar-10 02:01N 46°10' W 123°55'0 0.0
2018-Mar-10 01:31N 46°10' W 123°55'0 0.0
2018-Mar-10 01:01N 46°10' W 123°55'0 0.0
2018-Mar-10 00:31N 46°10' W 123°55'0 0.0
2018-Mar-10 00:01N 46°10' W 123°55'0 0.0
2018-Mar-09 23:31N 46°10' W 123°55'0 0.0
2018-Mar-09 23:01N 46°10' W 123°55'0 0.0
2018-Mar-09 22:31N 46°10' W 123°55'0 0.0
2018-Mar-09 22:01N 46°10' W 123°55'0 0.0
2018-Mar-09 21:30N 46°10' W 123°55'0 0.0
2018-Mar-09 21:00N 46°10' W 123°55'0 0.0
2018-Mar-09 20:31N 46°10' W 123°55'0 0.0
2018-Mar-09 20:01N 46°10' W 123°55'0 0.0
2018-Mar-09 19:30N 46°10' W 123°55'0 0.0
2018-Mar-09 19:00N 46°10' W 123°55'0 0.0
2018-Mar-09 18:30N 46°10' W 123°55'0 0.0
2018-Mar-09 18:00N 46°10' W 123°55'2 3.3
2018-Mar-09 17:30N 46°11' W 123°53'2 4.3
2018-Mar-09 17:01N 46°12' W 123°50'0 0.0
2018-Mar-09 16:30N 46°12' W 123°50'0 0.0
2018-Mar-09 16:01N 46°12' W 123°50'0 0.0
2018-Mar-09 15:31N 46°12' W 123°50'0 0.0
2018-Mar-09 15:01N 46°12' W 123°50'0 0.0
2018-Mar-09 14:31N 46°12' W 123°50'1 1.3
2018-Mar-09 13:56N 46°12' W 123°51'3 6.8
2018-Mar-09 13:31N 46°10' W 123°55'0 0.0
2018-Mar-09 13:00N 46°10' W 123°55'0 0.0
2018-Mar-09 12:31N 46°10' W 123°55'0 0.0
2018-Mar-09 12:01N 46°10' W 123°55'0 0.0
2018-Mar-09 11:31N 46°10' W 123°55'0 0.0
2018-Mar-09 11:00N 46°10' W 123°55'0 0.0
2018-Mar-09 10:30N 46°10' W 123°55'0 0.0
2018-Mar-09 10:00N 46°10' W 123°55'0 0.0
2018-Mar-09 09:31N 46°10' W 123°55'0 0.0
2018-Mar-09 09:00N 46°10' W 123°55'0 0.0
2018-Mar-09 08:31N 46°10' W 123°55'0 0.0
2018-Mar-09 08:01N 46°10' W 123°55'0 0.0
2018-Mar-09 07:30N 46°10' W 123°55'0 0.0
2018-Mar-09 07:00N 46°10' W 123°55'0 0.0
2018-Mar-09 06:31N 46°10' W 123°55'0 0.0
2018-Mar-09 06:00N 46°10' W 123°55'0 0.0
2018-Mar-09 05:27N 46°10' W 123°55'0 0.0
2018-Mar-09 04:57N 46°10' W 123°55'0 0.0
2018-Mar-09 04:30N 46°10' W 123°55'0 0.0
2018-Mar-09 03:57N 46°10' W 123°55'0 0.0
2018-Mar-09 03:31N 46°10' W 123°55'0 0.0
2018-Mar-09 02:57N 46°10' W 123°55'0 0.0
2018-Mar-09 02:31N 46°10' W 123°55'0 0.0
2018-Mar-09 02:01N 46°10' W 123°55'0 0.0
2018-Mar-09 01:31N 46°10' W 123°55'0 0.0
2018-Mar-09 01:01N 46°10' W 123°55'0 0.0
2018-Mar-09 00:31N 46°10' W 123°55'0 0.0
2018-Mar-09 00:01N 46°10' W 123°55'0 0.0
2018-Mar-08 23:30N 46°10' W 123°55'0 0.0
2018-Mar-08 23:01N 46°10' W 123°55'0 0.0
2018-Mar-08 22:31N 46°10' W 123°55'0 0.0
2018-Mar-08 21:43N 46°10' W 123°55'0 0.0
2018-Mar-08 21:30N 46°10' W 123°55'0 0.0
2018-Mar-08 21:00N 46°10' W 123°55'0 0.0
2018-Mar-08 20:31N 46°10' W 123°55'3 0.1
2018-Mar-07 22:00N 46°09' W 123°52'0 0.0
2018-Mar-07 21:31N 46°09' W 123°52'0 0.0
2018-Mar-07 21:01N 46°09' W 123°52'0 0.0
2018-Mar-07 20:30N 46°09' W 123°52'0 0.0
2018-Mar-07 20:01N 46°09' W 123°52'0 0.0
2018-Mar-07 19:30N 46°09' W 123°52'0 0.0
2018-Mar-07 18:39N 46°09' W 123°52'0 0.0
2018-Mar-07 18:30N 46°09' W 123°52'0 0.0
2018-Mar-07 18:00N 46°09' W 123°52'0 0.0
2018-Mar-07 17:31N 46°09' W 123°52'0 0.0
2018-Mar-07 17:00N 46°09' W 123°52'0 0.0
2018-Mar-07 16:31N 46°09' W 123°52'0 0.0
2018-Mar-07 16:00N 46°09' W 123°52'0 0.0
2018-Mar-07 15:31N 46°09' W 123°52'0 0.0
2018-Mar-07 15:01N 46°09' W 123°52'0 0.0
2018-Mar-07 14:16N 46°09' W 123°52'0 0.0
2018-Mar-07 14:01N 46°09' W 123°52'0 0.0
2018-Mar-07 13:31N 46°09' W 123°52'0 0.0
2018-Mar-07 13:00N 46°09' W 123°52'0 0.0
2018-Mar-07 12:31N 46°09' W 123°52'0 0.0
2018-Mar-07 11:57N 46°09' W 123°52'0 0.0
2018-Mar-07 11:30N 46°09' W 123°52'0 0.0
2018-Mar-07 11:01N 46°09' W 123°52'0 0.0
2018-Mar-07 10:30N 46°09' W 123°52'0 0.0
2018-Mar-07 10:01N 46°09' W 123°52'0 0.0
2018-Mar-07 09:24N 46°09' W 123°52'0 0.0
2018-Mar-07 09:01N 46°09' W 123°52'0 0.0
2018-Mar-07 08:31N 46°09' W 123°52'0 0.0
2018-Mar-07 08:01N 46°09' W 123°52'0 0.0
2018-Mar-07 07:14N 46°09' W 123°52'0 0.0
2018-Mar-07 07:01N 46°09' W 123°52'0 0.0
2018-Mar-07 06:19N 46°09' W 123°52'0 0.0
2018-Mar-07 06:00N 46°09' W 123°52'0 0.0
2018-Mar-07 05:30N 46°09' W 123°52'0 0.0
2018-Mar-07 05:01N 46°09' W 123°52'0 0.0
2018-Mar-07 04:30N 46°09' W 123°52'0 0.0
2018-Mar-07 04:01N 46°09' W 123°52'0 0.0
2018-Mar-07 03:31N 46°09' W 123°52'0 0.0
2018-Mar-07 03:00N 46°09' W 123°52'0 0.0
2018-Mar-07 02:30N 46°09' W 123°52'0 0.0
2018-Mar-07 01:53N 46°09' W 123°52'0 0.0
2018-Mar-07 01:29N 46°09' W 123°52'0 0.0
2018-Mar-07 01:01N 46°09' W 123°52'0 0.0
2018-Mar-07 00:27N 46°09' W 123°52'0 0.0
2018-Mar-06 23:54N 46°09' W 123°52'0 0.0
2018-Mar-06 23:20N 46°09' W 123°52'0 0.0
2018-Mar-06 23:01N 46°09' W 123°52'0 0.0
2018-Mar-06 22:22N 46°09' W 123°52'0 0.0
2018-Mar-06 22:01N 46°09' W 123°52'0 0.0
2018-Mar-06 21:31N 46°09' W 123°52'0 0.0
2018-Mar-06 20:47N 46°09' W 123°52'0 0.0
2018-Mar-06 20:29N 46°09' W 123°52'0 0.0
2018-Mar-06 20:01N 46°09' W 123°52'0 0.0
2018-Mar-06 19:30N 46°09' W 123°52'0 0.0
2018-Mar-06 19:01N 46°09' W 123°52'0 0.0
2018-Mar-06 18:30N 46°09' W 123°52'0 0.0
2018-Mar-06 18:01N 46°09' W 123°52'0 0.0
2018-Mar-06 17:30N 46°09' W 123°52'0 0.0
2018-Mar-06 17:00N 46°09' W 123°52'0 0.0
2018-Mar-06 16:30N 46°09' W 123°52'0 0.0
2018-Mar-06 16:01N 46°09' W 123°52'0 0.0
2018-Mar-06 15:25N 46°09' W 123°52'0 0.0
2018-Mar-06 15:00N 46°09' W 123°52'0 0.0
2018-Mar-06 14:30N 46°09' W 123°52'0 0.0
2018-Mar-06 14:01N 46°09' W 123°52'0 0.0
2018-Mar-06 13:31N 46°09' W 123°52'0 0.0
2018-Mar-06 13:01N 46°09' W 123°52'0 0.0
2018-Mar-06 12:30N 46°09' W 123°52'0 0.0
2018-Mar-06 12:01N 46°09' W 123°52'0 0.0
2018-Mar-06 11:28N 46°09' W 123°52'0 0.0
2018-Mar-06 11:00N 46°09' W 123°52'0 0.0
2018-Mar-06 10:31N 46°09' W 123°52'0 0.0
2018-Mar-06 10:00N 46°09' W 123°52'0 0.0
2018-Mar-06 09:30N 46°09' W 123°52'0 0.0
2018-Mar-06 09:00N 46°09' W 123°52'0 0.0
2018-Mar-06 08:29N 46°09' W 123°52'0 0.0
2018-Mar-06 08:00N 46°09' W 123°52'0 0.0
2018-Mar-06 07:30N 46°09' W 123°52'0 0.0
2018-Mar-06 07:01N 46°09' W 123°52'0 0.0
2018-Mar-06 06:30N 46°09' W 123°52'0 0.0
2018-Mar-06 06:00N 46°09' W 123°52'0 0.0
2018-Mar-06 05:31N 46°09' W 123°52'0 0.0
2018-Mar-06 05:00N 46°09' W 123°52'0 0.0
2018-Mar-06 04:31N 46°09' W 123°52'0 0.0
2018-Mar-06 04:01N 46°09' W 123°52'0 0.0
2018-Mar-06 03:30N 46°09' W 123°52'0 0.0
2018-Mar-06 03:01N 46°09' W 123°52'0 0.0
2018-Mar-06 02:31N 46°09' W 123°52'0 0.0
2018-Mar-06 02:01N 46°09' W 123°52'0 0.0
2018-Mar-06 01:31N 46°09' W 123°52'0 0.0
2018-Mar-06 01:00N 46°09' W 123°52'0 0.0
2018-Mar-06 00:31N 46°09' W 123°52'0 0.0
2018-Mar-06 00:01N 46°09' W 123°52'0 0.0
2018-Mar-05 23:31N 46°09' W 123°52'0 0.0
2018-Mar-05 23:00N 46°09' W 123°52'0 0.0
2018-Mar-05 22:30N 46°09' W 123°52'0 0.0
2018-Mar-05 22:01N 46°09' W 123°52'0 0.0
2018-Mar-05 21:31N 46°09' W 123°52'0 0.0
2018-Mar-05 21:01N 46°09' W 123°52'0 0.0
2018-Mar-05 20:30N 46°09' W 123°52'0 0.0
2018-Mar-05 20:00N 46°09' W 123°52'0 0.0
2018-Mar-05 19:30N 46°09' W 123°52'0 0.0
2018-Mar-05 19:00N 46°09' W 123°52'0 0.0
2018-Mar-05 18:31N 46°09' W 123°52'0 0.0
2018-Mar-05 17:59N 46°09' W 123°52'0 0.0
2018-Mar-05 17:31N 46°09' W 123°52'0 0.0
2018-Mar-05 17:01N 46°09' W 123°52'0 0.0
2018-Mar-05 16:30N 46°09' W 123°52'0 0.0
2018-Mar-05 16:01N 46°09' W 123°52'0 0.0
2018-Mar-05 15:30N 46°09' W 123°52'0 0.0
2018-Mar-05 15:00N 46°09' W 123°52'0 0.0
2018-Mar-05 14:26N 46°09' W 123°52'0 0.0
2018-Mar-05 14:00N 46°09' W 123°52'0 0.0
2018-Mar-05 13:29N 46°09' W 123°52'0 0.0
2018-Mar-05 13:01N 46°09' W 123°52'0 0.0
2018-Mar-05 12:31N 46°09' W 123°52'0 0.0
2018-Mar-05 12:01N 46°09' W 123°52'0 0.0
2018-Mar-05 11:31N 46°09' W 123°52'0 0.0
2018-Mar-05 11:00N 46°09' W 123°52'0 0.0
2018-Mar-05 10:31N 46°09' W 123°52'0 0.0
2018-Mar-05 10:01N 46°09' W 123°52'0 0.0
2018-Mar-05 09:30N 46°09' W 123°52'0 0.0
2018-Mar-05 08:48N 46°09' W 123°52'0 0.0
2018-Mar-05 08:30N 46°09' W 123°52'0 0.0
2018-Mar-05 08:01N 46°09' W 123°52'0 0.0
2018-Mar-05 07:30N 46°09' W 123°52'0 0.0
2018-Mar-05 07:00N 46°09' W 123°52'0 0.0
2018-Mar-05 06:31N 46°09' W 123°52'0 0.0
2018-Mar-05 06:01N 46°09' W 123°52'0 0.0
2018-Mar-05 05:30N 46°09' W 123°52'0 0.0
2018-Mar-05 05:00N 46°09' W 123°52'0 0.0
2018-Mar-05 04:11N 46°09' W 123°52'0 0.0
2018-Mar-05 04:00N 46°09' W 123°52'0 0.0
2018-Mar-05 03:31N 46°09' W 123°52'0 0.0
2018-Mar-05 03:01N 46°09' W 123°52'0 0.0
2018-Mar-05 02:31N 46°09' W 123°52'0 0.0
2018-Mar-05 01:53N 46°09' W 123°52'0 0.0
2018-Mar-05 01:31N 46°09' W 123°52'0 0.0
2018-Mar-05 01:01N 46°09' W 123°52'0 0.0
2018-Mar-05 00:30N 46°09' W 123°52'0 0.0
2018-Mar-05 00:01N 46°09' W 123°52'0 0.0
2018-Mar-04 23:31N 46°09' W 123°52'0 0.0
2018-Mar-04 22:57N 46°09' W 123°52'0 0.0
2018-Mar-04 22:30N 46°09' W 123°52'0 0.0
2018-Mar-04 22:00N 46°09' W 123°52'0 0.0
2018-Mar-04 21:31N 46°09' W 123°52'0 0.0
2018-Mar-04 21:01N 46°09' W 123°52'0 0.0
2018-Mar-04 20:30N 46°09' W 123°52'0 0.0
2018-Mar-04 20:00N 46°09' W 123°52'0 0.0
2018-Mar-04 19:27N 46°09' W 123°52'0 0.0
2018-Mar-04 19:01N 46°09' W 123°52'0 0.0
2018-Mar-04 18:31N 46°09' W 123°52'0 0.0
2018-Mar-04 18:00N 46°09' W 123°52'0 0.0
2018-Mar-04 17:30N 46°09' W 123°52'0 0.0
2018-Mar-04 17:01N 46°09' W 123°52'0 0.0
2018-Mar-04 16:31N 46°09' W 123°52'0 0.0
2018-Mar-04 16:01N 46°09' W 123°52'0 0.0
2018-Mar-04 15:31N 46°09' W 123°52'0 0.0
2018-Mar-04 15:00N 46°09' W 123°52'0 0.0
2018-Mar-04 13:53N 46°09' W 123°52'0 0.0
2018-Mar-04 13:31N 46°09' W 123°52'0 0.0
2018-Mar-04 13:01N 46°09' W 123°52'0 0.0
2018-Mar-04 12:31N 46°09' W 123°52'0 0.0
2018-Mar-04 12:01N 46°09' W 123°52'0 0.0
2018-Mar-04 11:31N 46°09' W 123°52'0 0.0
2018-Mar-04 11:00N 46°09' W 123°52'0 0.0
2018-Mar-04 10:31N 46°09' W 123°52'0 0.0
2018-Mar-04 10:01N 46°09' W 123°52'0 0.0
2018-Mar-04 09:31N 46°09' W 123°52'0 0.0
2018-Mar-04 09:01N 46°09' W 123°52'0 0.0
2018-Mar-04 08:31N 46°09' W 123°52'0 0.0
2018-Mar-04 08:00N 46°09' W 123°52'0 0.0
2018-Mar-04 07:30N 46°09' W 123°52'0 0.0
2018-Mar-04 06:44N 46°09' W 123°52'0 0.0
2018-Mar-04 06:30N 46°09' W 123°52'0 0.0
2018-Mar-04 05:55N 46°09' W 123°52'0 0.0
2018-Mar-04 05:30N 46°09' W 123°52'0 0.0
2018-Mar-04 05:01N 46°09' W 123°52'0 0.0
2018-Mar-04 04:30N 46°09' W 123°52'0 0.0
2018-Mar-04 03:55N 46°09' W 123°52'0 0.0
2018-Mar-04 03:30N 46°09' W 123°52'0 0.0
2018-Mar-04 03:01N 46°09' W 123°52'0 0.0
2018-Mar-04 02:30N 46°09' W 123°52'0 0.0
2018-Mar-04 02:00N 46°09' W 123°52'0 0.0
2018-Mar-04 01:30N 46°09' W 123°52'0 0.0
2018-Mar-04 00:46N 46°09' W 123°52'0 0.0
2018-Mar-04 00:31N 46°09' W 123°52'0 0.0
2018-Mar-04 00:00N 46°09' W 123°52'0 0.0
2018-Mar-03 23:31N 46°09' W 123°52'0 0.0
2018-Mar-03 23:00N 46°09' W 123°52'0 0.0
2018-Mar-03 22:31N 46°09' W 123°52'0 0.0
2018-Mar-03 22:00N 46°09' W 123°52'0 0.0
2018-Mar-03 21:31N 46°09' W 123°52'0 0.0
2018-Mar-03 21:01N 46°09' W 123°52'0 0.0
2018-Mar-03 20:30N 46°09' W 123°52'0 0.0
2018-Mar-03 20:01N 46°09' W 123°52'0 0.0
2018-Mar-03 19:31N 46°09' W 123°52'0 0.0
2018-Mar-03 19:01N 46°09' W 123°52'  

Dump ship's entire track history